Randy J. Trosclair — WDG2643 — position and weather

sailwx.info

Track history (hours):
 
Tides and Currents Weather Stations Pressure Air Temp Water Temp Dewpoint Dewpoint Depression Visibility Wind Speed Wind Dir Waves Ship Positions

Randy J. Trosclair

Owner: Florida Marine, LLC, Mandeville, LA. More information available from US FCC via Universal Licensing System and Coast Guard Vessel Documentation Center.

Last reported at 2018-Jan-18 20:16 UTC. Time now 2018-Jan-19 15:25 UTC.
Position N 31°60' W 091°05'.

Length 27 m; draft 2.9 m.

Type: Other ship. MMSI: 367517730.

Date/timePositionNaut miles runAvg speedWind from/ knotsBaromVisibWave heightAir tempDewpointWater temp
2018-Jan-18 20:16N 31°60' W 091°05'3 9.7
2018-Jan-18 19:56N 32°03' W 091°04'4 9.4
2018-Jan-18 19:28N 32°06' W 091°06'3 5.9
2018-Jan-18 19:01N 32°07' W 091°03'4 8.1
2018-Jan-18 18:30N 32°10' W 091°00'4 8.3
2018-Jan-18 18:00N 32°15' W 090°59'4 8.0
2018-Jan-18 17:29N 32°18' W 090°56'3 6.4
2018-Jan-18 17:01N 32°21' W 090°55'2 3.0
2018-Jan-18 16:30N 32°21' W 090°57'0 0.0
2018-Jan-18 16:00N 32°21' W 090°57'0 0.0
2018-Jan-18 15:30N 32°21' W 090°57'0 0.0
2018-Jan-18 15:00N 32°21' W 090°57'0 0.0
2018-Jan-18 14:30N 32°21' W 090°57'0 0.0
2018-Jan-18 14:00N 32°21' W 090°57'0 0.0
2018-Jan-18 13:30N 32°21' W 090°57'0 0.0
2018-Jan-18 13:00N 32°21' W 090°57'0 0.0
2018-Jan-18 12:30N 32°21' W 090°57'0 0.3
2018-Jan-18 12:00N 32°21' W 090°57'3 5.5
2018-Jan-18 11:31N 32°21' W 091°00'5 9.3
2018-Jan-18 11:00N 32°26' W 091°02'510.7
2018-Jan-18 10:30N 32°29' W 091°07'510.8
2018-Jan-18 10:00N 32°34' W 091°07'  
Track history (hours):
 
Tides and Currents Weather Stations Pressure Air Temp Water Temp Dewpoint Dewpoint Depression Visibility Wind Speed Wind Dir Waves Ship Positions

Randy J. Trosclair

Owner: Florida Marine, LLC, Mandeville, LA. More information available from US FCC via Universal Licensing System and Coast Guard Vessel Documentation Center.

Last reported at 2018-Jan-18 20:16 UTC. Time now 2018-Jan-19 15:25 UTC.
Position N 31°60' W 091°05'.

Length 27 m; draft 2.9 m.

Type: Other ship. MMSI: 367517730.

Date/timePositionNaut miles runAvg speedWind from/ knotsBaromVisibWave heightAir tempDewpointWater temp
2018-Jan-18 20:16N 31°60' W 091°05'3 9.7
2018-Jan-18 19:56N 32°03' W 091°04'4 9.4
2018-Jan-18 19:28N 32°06' W 091°06'3 5.9
2018-Jan-18 19:01N 32°07' W 091°03'4 8.1
2018-Jan-18 18:30N 32°10' W 091°00'4 8.3
2018-Jan-18 18:00N 32°15' W 090°59'4 8.0
2018-Jan-18 17:29N 32°18' W 090°56'3 6.4
2018-Jan-18 17:01N 32°21' W 090°55'2 3.0
2018-Jan-18 16:30N 32°21' W 090°57'0 0.0
2018-Jan-18 16:00N 32°21' W 090°57'0 0.0
2018-Jan-18 15:30N 32°21' W 090°57'0 0.0
2018-Jan-18 15:00N 32°21' W 090°57'0 0.0
2018-Jan-18 14:30N 32°21' W 090°57'0 0.0
2018-Jan-18 14:00N 32°21' W 090°57'0 0.0
2018-Jan-18 13:30N 32°21' W 090°57'0 0.0
2018-Jan-18 13:00N 32°21' W 090°57'0 0.0
2018-Jan-18 12:30N 32°21' W 090°57'0 0.3
2018-Jan-18 12:00N 32°21' W 090°57'3 5.5
2018-Jan-18 11:31N 32°21' W 091°00'5 9.3
2018-Jan-18 11:00N 32°26' W 091°02'510.7
2018-Jan-18 10:30N 32°29' W 091°07'510.8
2018-Jan-18 10:00N 32°34' W 091°07'  

Dump ship's entire track history